Time;durP1;ratioP1;P1;durP2;ratioP2;P2;SDS_P1;SDS_P2;PMS_P1;PMS_P2;Temp;Humidity;BMP_temperature;BMP_pressure;BME280_temperature;BME280_humidity;BME280_pressure;Samples;Min_cycle;Max_cycle;Signal;HPM_P1;HPM_P2
2023/07/27 00:02:06;;;;;;;3.80;3.70;;;;;;;;;;5054649;28;20431;-83
2023/07/27 00:04:32;;;;;;;4.50;4.40;;;;;;;;;;5049420;28;20406;-84
2023/07/27 00:06:58;;;;;;;4.00;3.67;;;;;;;;;;5049435;28;20477;-85
2023/07/27 00:09:24;;;;;;;4.33;4.20;;;;;;;;;;5049700;28;20419;-84
2023/07/27 00:11:50;;;;;;;3.67;3.57;;;;;;;;;;5049679;28;20456;-84
2023/07/27 00:14:16;;;;;;;4.20;3.90;;;;;;;;;;5052935;28;20490;-85
2023/07/27 00:16:42;;;;;;;3.53;3.40;;;;;;;;;;5043958;28;20476;-85
2023/07/27 00:19:08;;;;;;;3.97;3.83;;;;;;;;;;5053340;28;20422;-85
2023/07/27 00:21:34;;;;;;;3.57;3.50;;;;;;;;;;5052032;28;20438;-85
2023/07/27 00:24:03;;;;;;;4.17;3.97;;;;;;;;;;5052667;28;20426;-87
2023/07/27 00:26:29;;;;;;;4.13;3.93;;;;;;;;;;5052248;28;20488;-82
2023/07/27 00:28:55;;;;;;;3.90;3.80;;;;;;;;;;5050845;28;20408;-85
2023/07/27 00:31:21;;;;;;;3.80;3.50;;;;;;;;;;5042225;28;20469;-83
2023/07/27 00:33:47;;;;;;;3.40;3.27;;;;;;;;;;5045224;28;20496;-84
2023/07/27 00:36:13;;;;;;;4.50;4.10;;;;;;;;;;5030538;28;20414;-85
2023/07/27 00:38:39;;;;;;;3.67;3.57;;;;;;;;;;5047951;28;20415;-84
2023/07/27 00:41:05;;;;;;;4.07;3.80;;;;;;;;;;5040241;28;21003;-84
2023/07/27 00:43:31;;;;;;;3.43;3.33;;;;;;;;;;5044395;28;20433;-83
2023/07/27 00:46:00;;;;;;;3.97;3.77;;;;;;;;;;5046359;28;20398;-83
2023/07/27 00:48:26;;;;;;;3.97;3.87;;;;;;;;;;5047615;28;20414;-83
2023/07/27 00:50:52;;;;;;;3.30;3.30;;;;;;;;;;5046614;28;20414;-83
2023/07/27 00:53:18;;;;;;;3.97;3.83;;;;;;;;;;5043206;28;20467;-83
2023/07/27 00:55:44;;;;;;;4.30;4.10;;;;;;;;;;5045477;28;20414;-83
2023/07/27 00:58:11;;;;;;;3.50;3.30;;;;;;;;;;5040346;28;20518;-83
2023/07/27 01:00:38;;;;;;;3.83;3.73;;;;;;;;;;5044054;28;20422;-84
2023/07/27 01:03:04;;;;;;;3.50;3.20;;;;;;;;;;5043801;28;20434;-84
2023/07/27 01:05:31;;;;;;;3.33;3.33;;;;;;;;;;5045118;28;20411;-83
2023/07/27 01:07:57;;;;;;;3.77;3.47;;;;;;;;;;5040715;28;20446;-84
2023/07/27 01:10:28;;;;;;;3.27;3.07;;;;;;;;;;5042527;28;20442;-83
2023/07/27 01:12:58;;;;;;;4.30;4.10;;;;;;;;;;5042937;28;20494;-84
2023/07/27 01:15:27;;;;;;;3.80;3.60;;;;;;;;;;5045550;28;20478;-84
2023/07/27 01:17:55;;;;;;;3.83;3.60;;;;;;;;;;5039555;28;20443;-84
2023/07/27 01:20:28;;;;;;;4.53;4.40;;;;;;;;;;5041668;28;20451;-83
2023/07/27 01:23:00;;;;;;;3.93;3.63;;;;;;;;;;5034536;28;20633;-84
2023/07/27 01:25:29;;;;;;;4.23;3.93;;;;;;;;;;5035734;28;20484;-84
2023/07/27 01:28:01;;;;;;;3.17;3.07;;;;;;;;;;5037058;28;20467;-84
2023/07/27 01:30:27;;;;;;;5.10;3.77;;;;;;;;;;5032545;28;20435;-83
2023/07/27 01:32:57;;;;;;;3.63;3.40;;;;;;;;;;5033302;28;20477;-84
2023/07/27 01:35:25;;;;;;;6.10;4.40;;;;;;;;;;5035353;28;20860;-84
2023/07/27 01:37:52;;;;;;;3.50;3.50;;;;;;;;;;5038587;28;20446;-83
2023/07/27 01:40:18;;;;;;;3.70;3.60;;;;;;;;;;5031755;28;20478;-84
2023/07/27 01:42:44;;;;;;;3.73;3.43;;;;;;;;;;5041715;28;20426;-83
2023/07/27 01:45:11;;;;;;;3.30;3.30;;;;;;;;;;5040250;28;20423;-83
2023/07/27 01:47:38;;;;;;;3.97;3.87;;;;;;;;;;5032037;28;20548;-83
2023/07/27 01:50:08;;;;;;;3.67;3.57;;;;;;;;;;5034086;28;20707;-82
2023/07/27 01:52:34;;;;;;;3.90;3.80;;;;;;;;;;5032584;28;20484;-84
2023/07/27 01:55:01;;;;;;;4.17;3.87;;;;;;;;;;5026472;28;20510;-84
2023/07/27 01:57:27;;;;;;;3.57;3.37;;;;;;;;;;5027470;28;20454;-84
2023/07/27 01:59:53;;;;;;;3.80;3.70;;;;;;;;;;5024743;28;20706;-82
2023/07/27 02:02:20;;;;;;;4.50;4.10;;;;;;;;;;5029782;28;20410;-83
2023/07/27 02:04:46;;;;;;;4.33;4.03;;;;;;;;;;5036486;28;20411;-83
2023/07/27 02:07:12;;;;;;;4.03;3.83;;;;;;;;;;5048886;28;20425;-82
2023/07/27 02:09:38;;;;;;;14.43;4.90;;;;;;;;;;5048935;28;20403;-83
2023/07/27 02:12:09;;;;;;;4.20;3.93;;;;;;;;;;5045018;28;20418;-82
2023/07/27 02:14:45;;;;;;;4.60;4.40;;;;;;;;;;5043009;28;20926;-84
2023/07/27 02:17:23;;;;;;;3.40;3.40;;;;;;;;;;5036786;28;20446;-83
2023/07/27 02:19:52;;;;;;;5.40;4.00;;;;;;;;;;5056624;28;20442;-83
2023/07/27 02:22:18;;;;;;;3.90;3.80;;;;;;;;;;5040543;28;20453;-83
2023/07/27 02:24:44;;;;;;;4.50;4.17;;;;;;;;;;5045458;28;20476;-83
2023/07/27 02:27:10;;;;;;;3.80;3.70;;;;;;;;;;5041158;28;21565;-83
2023/07/27 02:29:36;;;;;;;4.80;4.17;;;;;;;;;;5044527;28;20453;-83
2023/07/27 02:32:02;;;;;;;4.50;4.33;;;;;;;;;;5051035;28;20451;-85
2023/07/27 02:34:28;;;;;;;4.20;4.10;;;;;;;;;;5052124;28;20478;-83
2023/07/27 02:36:54;;;;;;;5.10;4.80;;;;;;;;;;5045512;28;20441;-84
2023/07/27 02:39:20;;;;;;;4.83;4.60;;;;;;;;;;5045173;28;20422;-83
2023/07/27 02:41:46;;;;;;;5.53;5.33;;;;;;;;;;5038121;28;20422;-84
2023/07/27 02:44:11;;;;;;;5.13;4.57;;;;;;;;;;5046142;28;20434;-83
2023/07/27 02:46:37;;;;;;;4.93;4.70;;;;;;;;;;5047335;28;20427;-84
2023/07/27 02:49:03;;;;;;;5.37;5.10;;;;;;;;;;5050097;28;20411;-84
2023/07/27 02:51:29;;;;;;;5.43;5.20;;;;;;;;;;5051908;28;20513;-84
2023/07/27 02:53:55;;;;;;;6.17;5.87;;;;;;;;;;5047236;28;20533;-85
2023/07/27 02:56:22;;;;;;;5.03;4.83;;;;;;;;;;5046989;28;20486;-85
2023/07/27 02:58:47;;;;;;;5.60;5.20;;;;;;;;;;5052587;28;20402;-84
2023/07/27 03:01:13;;;;;;;5.40;5.30;;;;;;;;;;5050047;28;20458;-84
2023/07/27 03:03:43;;;;;;;5.47;5.10;;;;;;;;;;5054580;28;20514;-86
2023/07/27 03:06:08;;;;;;;5.30;5.13;;;;;;;;;;5053047;28;20580;-84
2023/07/27 03:08:34;;;;;;;5.73;5.33;;;;;;;;;;5051958;28;20746;-84
2023/07/27 03:11:04;;;;;;;6.67;6.00;;;;;;;;;;5051477;28;20458;-82
2023/07/27 03:13:31;;;;;;;5.20;5.00;;;;;;;;;;5044019;28;20473;-84
2023/07/27 03:15:57;;;;;;;5.77;5.23;;;;;;;;;;5043714;28;20426;-87
2023/07/27 03:18:23;;;;;;;6.10;5.60;;;;;;;;;;5045342;28;20456;-86
2023/07/27 03:20:49;;;;;;;7.67;7.03;;;;;;;;;;5040784;28;20446;-84
2023/07/27 03:23:15;;;;;;;6.67;6.17;;;;;;;;;;5038980;28;20945;-85
2023/07/27 03:25:41;;;;;;;7.33;6.90;;;;;;;;;;5040305;28;20503;-86
2023/07/27 03:28:08;;;;;;;6.63;6.17;;;;;;;;;;5038739;28;20426;-86
2023/07/27 03:30:38;;;;;;;6.43;6.20;;;;;;;;;;5036702;28;20443;-86
2023/07/27 03:33:04;;;;;;;6.70;6.30;;;;;;;;;;5035835;28;20473;-86
2023/07/27 03:35:30;;;;;;;6.67;6.20;;;;;;;;;;5040099;28;20431;-86
2023/07/27 03:37:59;;;;;;;7.20;6.60;;;;;;;;;;5035118;28;20600;-86
2023/07/27 03:40:25;;;;;;;8.20;7.70;;;;;;;;;;5036433;28;20536;-86
2023/07/27 03:42:51;;;;;;;6.00;5.70;;;;;;;;;;5030924;28;20521;-84
2023/07/27 03:45:17;;;;;;;6.97;6.47;;;;;;;;;;5036058;28;20442;-86
2023/07/27 03:47:44;;;;;;;7.63;7.10;;;;;;;;;;5031974;28;20617;-87
2023/07/27 03:50:10;;;;;;;6.50;6.20;;;;;;;;;;5031230;28;20492;-85
2023/07/27 03:52:37;;;;;;;7.67;7.00;;;;;;;;;;5037167;28;20470;-86
2023/07/27 03:55:03;;;;;;;6.73;6.30;;;;;;;;;;5037890;28;20488;-85
2023/07/27 03:57:29;;;;;;;7.07;6.57;;;;;;;;;;5040418;28;20538;-85
2023/07/27 03:59:55;;;;;;;7.70;6.27;;;;;;;;;;5037864;28;20439;-85
2023/07/27 04:02:22;;;;;;;6.63;6.13;;;;;;;;;;5032574;28;20831;-85
2023/07/27 04:04:48;;;;;;;7.17;6.67;;;;;;;;;;5034656;28;20438;-84
2023/07/27 04:07:14;;;;;;;5.70;5.40;;;;;;;;;;5034379;28;20438;-86
2023/07/27 04:09:40;;;;;;;6.70;6.23;;;;;;;;;;5045381;28;20434;-82
2023/07/27 04:12:06;;;;;;;7.20;6.70;;;;;;;;;;5046531;28;20442;-84
2023/07/27 04:14:32;;;;;;;5.47;5.37;;;;;;;;;;5044792;28;20482;-84
2023/07/27 04:16:58;;;;;;;6.37;6.00;;;;;;;;;;5036506;28;20443;-84
2023/07/27 04:19:24;;;;;;;19.60;7.40;;;;;;;;;;5037599;28;20438;-84
2023/07/27 04:21:50;;;;;;;6.17;5.90;;;;;;;;;;5034466;28;20541;-85
2023/07/27 04:24:16;;;;;;;7.23;6.60;;;;;;;;;;5038285;28;20532;-85
2023/07/27 04:26:42;;;;;;;6.70;6.30;;;;;;;;;;5033950;28;22399;-85
2023/07/27 04:29:08;;;;;;;7.70;7.20;;;;;;;;;;5030725;28;20429;-86
2023/07/27 04:31:34;;;;;;;8.30;7.30;;;;;;;;;;5029033;28;20470;-85
2023/07/27 04:34:00;;;;;;;7.50;6.90;;;;;;;;;;5030964;28;20470;-85
2023/07/27 04:36:26;;;;;;;8.57;7.17;;;;;;;;;;5018702;28;20481;-85
2023/07/27 04:38:52;;;;;;;10.17;7.90;;;;;;;;;;5029035;28;20445;-86
2023/07/27 04:41:17;;;;;;;8.03;7.30;;;;;;;;;;5029725;28;20478;-86
2023/07/27 04:43:43;;;;;;;6.80;6.37;;;;;;;;;;5039737;28;20470;-86
2023/07/27 04:46:09;;;;;;;6.50;6.20;;;;;;;;;;5045113;28;20452;-85
2023/07/27 04:48:35;;;;;;;6.83;6.33;;;;;;;;;;5038183;28;20491;-85
2023/07/27 04:51:01;;;;;;;7.50;7.00;;;;;;;;;;5037853;28;20451;-88
2023/07/27 04:53:28;;;;;;;6.83;6.53;;;;;;;;;;5042544;28;20456;-83
2023/07/27 04:55:54;;;;;;;6.93;6.33;;;;;;;;;;5045983;28;20458;-87
2023/07/27 04:58:20;;;;;;;7.63;6.80;;;;;;;;;;5043924;28;20434;-86
2023/07/27 05:00:52;;;;;;;6.93;6.40;;;;;;;;;;5044717;28;20559;-86
2023/07/27 05:03:18;;;;;;;6.60;6.20;;;;;;;;;;5046107;28;20979;-86
2023/07/27 05:05:44;;;;;;;6.40;5.80;;;;;;;;;;5038512;28;20419;-85
2023/07/27 05:08:10;;;;;;;6.07;5.67;;;;;;;;;;5042162;28;20645;-78
2023/07/27 05:10:39;;;;;;;6.30;5.90;;;;;;;;;;5039505;28;20541;-86
2023/07/27 05:13:05;;;;;;;7.20;6.70;;;;;;;;;;5037386;28;20533;-85
2023/07/27 05:15:31;;;;;;;5.93;5.30;;;;;;;;;;5045566;28;20434;-86
2023/07/27 05:17:57;;;;;;;6.60;6.17;;;;;;;;;;5050641;28;20446;-86
2023/07/27 05:20:23;;;;;;;6.63;6.13;;;;;;;;;;5050363;28;20553;-85
2023/07/27 05:22:50;;;;;;;5.63;5.43;;;;;;;;;;5054507;28;20434;-86
2023/07/27 05:25:16;;;;;;;6.70;6.30;;;;;;;;;;5048870;28;20449;-87
2023/07/27 05:27:42;;;;;;;5.80;5.50;;;;;;;;;;5047798;28;20419;-85
2023/07/27 05:30:08;;;;;;;6.07;5.70;;;;;;;;;;5052987;28;20423;-88
2023/07/27 05:32:34;;;;;;;5.70;5.30;;;;;;;;;;5053036;28;20458;-86
2023/07/27 05:35:00;;;;;;;5.60;5.30;;;;;;;;;;5047605;28;20450;-85
2023/07/27 05:37:26;;;;;;;4.80;4.50;;;;;;;;;;5047043;28;21007;-84
2023/07/27 05:39:52;;;;;;;4.60;4.30;;;;;;;;;;5047536;28;20490;-85
2023/07/27 05:42:18;;;;;;;5.67;5.37;;;;;;;;;;5024257;28;20447;-79
2023/07/27 05:44:44;;;;;;;4.80;4.50;;;;;;;;;;5021398;28;20941;-83
2023/07/27 05:47:10;;;;;;;6.00;5.50;;;;;;;;;;5035135;28;20427;-82
2023/07/27 05:49:36;;;;;;;4.43;4.13;;;;;;;;;;5033929;28;20845;-86
2023/07/27 05:52:02;;;;;;;3.83;3.73;;;;;;;;;;5031767;28;20500;-83
2023/07/27 05:54:28;;;;;;;5.37;4.93;;;;;;;;;;5032975;28;20909;-84
2023/07/27 05:56:54;;;;;;;3.90;3.57;;;;;;;;;;5032614;28;20453;-86
2023/07/27 05:59:20;;;;;;;4.20;4.10;;;;;;;;;;5036001;28;20461;-84
2023/07/27 06:01:46;;;;;;;4.43;4.10;;;;;;;;;;5036466;28;20426;-85
2023/07/27 06:04:12;;;;;;;5.10;4.80;;;;;;;;;;5039449;28;20434;-86
2023/07/27 06:06:38;;;;;;;4.57;4.20;;;;;;;;;;5037522;28;20440;-86
2023/07/27 06:09:04;;;;;;;3.67;3.57;;;;;;;;;;5042154;28;20439;-86
2023/07/27 06:11:30;;;;;;;3.97;3.67;;;;;;;;;;5037740;28;20545;-88
2023/07/27 06:13:56;;;;;;;4.10;3.90;;;;;;;;;;5041925;28;20468;-86
2023/07/27 06:16:24;;;;;;;4.43;4.33;;;;;;;;;;5044583;28;20784;-85
2023/07/27 06:18:50;;;;;;;4.50;4.20;;;;;;;;;;5044503;28;20429;-86
2023/07/27 06:21:16;;;;;;;4.60;4.40;;;;;;;;;;5046984;28;20451;-85
2023/07/27 06:23:42;;;;;;;3.90;3.80;;;;;;;;;;5032416;28;20981;-85
2023/07/27 06:26:14;;;;;;;4.10;3.93;;;;;;;;;;5030943;28;20411;-87
2023/07/27 06:28:43;;;;;;;3.57;3.47;;;;;;;;;;5041887;28;20426;-89
2023/07/27 06:31:09;;;;;;;4.17;4.00;;;;;;;;;;5036475;28;20426;-88
2023/07/27 06:33:35;;;;;;;4.27;3.93;;;;;;;;;;5035901;28;20936;-84
2023/07/27 06:36:02;;;;;;;4.00;3.90;;;;;;;;;;5032366;28;21048;-87
2023/07/27 06:38:58;;;;;;;5.17;5.00;;;;;;;;;;5037574;28;20459;-83
2023/07/27 06:44:28;;;;;;;6.50;6.13;;;;;;;;;;5177000;22;20499;-83
2023/07/27 06:46:54;;;;;;;6.93;6.57;;;;;;;;;;5048058;28;20543;-83
2023/07/27 06:49:20;;;;;;;6.10;5.80;;;;;;;;;;5041207;28;20453;-82
2023/07/27 06:51:47;;;;;;;6.93;6.53;;;;;;;;;;5042062;28;20792;-82
2023/07/27 06:54:13;;;;;;;6.47;6.17;;;;;;;;;;5042516;28;20465;-83
2023/07/27 06:56:39;;;;;;;5.23;4.90;;;;;;;;;;5050078;28;20571;-86
2023/07/27 06:59:05;;;;;;;4.90;4.80;;;;;;;;;;5052223;28;20956;-83
2023/07/27 07:01:31;;;;;;;5.23;5.00;;;;;;;;;;5044888;28;20429;-84
2023/07/27 07:03:57;;;;;;;4.67;4.47;;;;;;;;;;5051719;28;20461;-82
2023/07/27 07:06:23;;;;;;;6.67;6.20;;;;;;;;;;5037790;28;20462;-79
2023/07/27 07:08:49;;;;;;;4.70;4.37;;;;;;;;;;5038026;28;20903;-81
2023/07/27 07:11:15;;;;;;;3.47;3.47;;;;;;;;;;5044912;28;20445;-85
2023/07/27 07:13:41;;;;;;;3.50;3.50;;;;;;;;;;5035218;28;20515;-81
2023/07/27 07:16:10;;;;;;;4.00;3.90;;;;;;;;;;5041050;28;20988;-83
2023/07/27 07:18:39;;;;;;;3.83;3.73;;;;;;;;;;5053713;28;20501;-82
2023/07/27 07:21:05;;;;;;;3.47;3.37;;;;;;;;;;5052029;28;20440;-86
2023/07/27 07:23:31;;;;;;;3.33;3.20;;;;;;;;;;5053108;28;20982;-85
2023/07/27 07:25:57;;;;;;;3.10;3.10;;;;;;;;;;5051394;28;20441;-83
2023/07/27 07:28:23;;;;;;;2.80;2.80;;;;;;;;;;5056301;28;20445;-86
2023/07/27 07:30:49;;;;;;;3.67;3.57;;;;;;;;;;5065152;28;20800;-80
2023/07/27 07:33:15;;;;;;;3.70;3.70;;;;;;;;;;5064559;28;20492;-84
2023/07/27 07:35:42;;;;;;;3.07;3.07;;;;;;;;;;5051679;28;20454;-84
2023/07/27 07:38:08;;;;;;;3.10;3.10;;;;;;;;;;5053699;28;20547;-81
2023/07/27 07:40:34;;;;;;;3.97;3.67;;;;;;;;;;5063092;28;20440;-86
2023/07/27 07:43:00;;;;;;;3.00;3.00;;;;;;;;;;5058310;28;20536;-86
2023/07/27 07:45:26;;;;;;;2.93;2.93;;;;;;;;;;5062851;28;20472;-85
2023/07/27 07:47:52;;;;;;;2.30;2.30;;;;;;;;;;5054680;28;20429;-84
2023/07/27 07:50:18;;;;;;;3.00;2.90;;;;;;;;;;5055911;28;20522;-85
2023/07/27 07:52:44;;;;;;;2.97;2.87;;;;;;;;;;5060308;28;20461;-84
2023/07/27 07:55:10;;;;;;;4.43;4.03;;;;;;;;;;5060105;28;20505;-83
2023/07/27 07:57:39;;;;;;;5.70;5.43;;;;;;;;;;5056768;28;20438;-84
2023/07/27 08:00:05;;;;;;;4.13;4.03;;;;;;;;;;5039690;28;20434;-85
2023/07/27 08:02:31;;;;;;;4.93;4.73;;;;;;;;;;5051558;28;20422;-85
2023/07/27 08:04:57;;;;;;;3.30;3.30;;;;;;;;;;5038151;28;21170;-84
2023/07/27 08:07:23;;;;;;;3.20;3.10;;;;;;;;;;5057909;28;20480;-86
2023/07/27 08:09:49;;;;;;;3.50;3.40;;;;;;;;;;5052044;28;20426;-86
2023/07/27 08:12:16;;;;;;;3.50;3.50;;;;;;;;;;5049900;28;20476;-86
2023/07/27 08:14:42;;;;;;;3.30;3.20;;;;;;;;;;5053602;28;20469;-86
2023/07/27 08:17:08;;;;;;;3.40;3.30;;;;;;;;;;5054889;28;20432;-85
2023/07/27 08:19:34;;;;;;;3.93;3.83;;;;;;;;;;5042476;28;21041;-84
2023/07/27 08:22:00;;;;;;;6.37;5.87;;;;;;;;;;5022549;28;20449;-82
2023/07/27 08:24:26;;;;;;;4.70;4.60;;;;;;;;;;5031821;28;20507;-83
2023/07/27 08:26:52;;;;;;;4.37;4.10;;;;;;;;;;5048982;28;20445;-89
2023/07/27 08:29:18;;;;;;;5.80;5.60;;;;;;;;;;5042493;28;20448;-86
2023/07/27 08:31:44;;;;;;;5.60;5.40;;;;;;;;;;5067392;28;20434;-84
2023/07/27 08:34:10;;;;;;;5.30;5.00;;;;;;;;;;5061728;28;20457;-85
2023/07/27 08:36:36;;;;;;;6.70;6.50;;;;;;;;;;5061796;28;21085;-84
2023/07/27 08:39:02;;;;;;;7.00;6.73;;;;;;;;;;5058577;28;20446;-87
2023/07/27 08:41:29;;;;;;;6.07;5.87;;;;;;;;;;5061456;28;20447;-83
2023/07/27 08:44:02;;;;;;;5.37;5.27;;;;;;;;;;5054235;28;20544;-85
2023/07/27 08:46:29;;;;;;;6.17;5.90;;;;;;;;;;5053085;28;20454;-82
2023/07/27 08:48:55;;;;;;;5.60;5.40;;;;;;;;;;5054435;28;20426;-86
2023/07/27 08:51:21;;;;;;;7.77;7.43;;;;;;;;;;5057424;28;20678;-84
2023/07/27 08:53:47;;;;;;;5.07;4.77;;;;;;;;;;5056442;28;20645;-85
2023/07/27 08:56:13;;;;;;;5.83;5.63;;;;;;;;;;5058651;28;20441;-83
2023/07/27 08:58:42;;;;;;;5.40;5.10;;;;;;;;;;5055201;28;20460;-87
2023/07/27 09:01:08;;;;;;;5.50;5.40;;;;;;;;;;5053569;28;20437;-85
2023/07/27 09:03:34;;;;;;;5.67;5.47;;;;;;;;;;5052522;28;20437;-88
2023/07/27 09:06:02;;;;;;;5.90;5.70;;;;;;;;;;5063169;28;20426;-83
2023/07/27 09:08:29;;;;;;;6.03;5.87;;;;;;;;;;5059487;28;20442;-77
2023/07/27 09:10:55;;;;;;;5.57;5.27;;;;;;;;;;5056773;28;21184;-84
2023/07/27 09:13:21;;;;;;;4.50;4.40;;;;;;;;;;5052890;28;20504;-83
2023/07/27 09:15:47;;;;;;;3.53;3.43;;;;;;;;;;5046465;28;20473;-81
2023/07/27 09:18:14;;;;;;;3.30;3.23;;;;;;;;;;5036444;28;20453;-87
2023/07/27 09:20:40;;;;;;;2.80;2.80;;;;;;;;;;5057195;28;20461;-88
2023/07/27 09:23:07;;;;;;;2.47;2.40;;;;;;;;;;5064716;28;20429;-85
2023/07/27 09:25:33;;;;;;;3.00;3.00;;;;;;;;;;5041167;28;21015;-87
2023/07/27 09:27:59;;;;;;;3.03;2.93;;;;;;;;;;5057672;28;21088;-86
2023/07/27 09:30:26;;;;;;;4.33;4.23;;;;;;;;;;5024248;28;21254;-83
2023/07/27 09:32:52;;;;;;;3.50;3.50;;;;;;;;;;5042441;28;20468;-83
2023/07/27 09:35:19;;;;;;;4.13;4.13;;;;;;;;;;5046594;28;20531;-84
2023/07/27 09:37:46;;;;;;;3.83;3.67;;;;;;;;;;5052302;28;20452;-83
2023/07/27 09:40:18;;;;;;;3.77;3.77;;;;;;;;;;5053121;28;20515;-85
2023/07/27 09:42:44;;;;;;;2.83;2.83;;;;;;;;;;5059601;28;20549;-84
2023/07/27 09:45:11;;;;;;;2.50;2.50;;;;;;;;;;5056444;28;20889;-84
2023/07/27 09:47:38;;;;;;;2.63;2.63;;;;;;;;;;5055318;28;20441;-85
2023/07/27 09:50:04;;;;;;;2.50;2.50;;;;;;;;;;5057492;28;20429;-83
2023/07/27 09:52:30;;;;;;;1.97;1.87;;;;;;;;;;5052642;28;20955;-83
2023/07/27 09:54:57;;;;;;;2.03;2.03;;;;;;;;;;5061815;28;21251;-83
2023/07/27 09:57:23;;;;;;;2.07;2.07;;;;;;;;;;5035698;28;20446;-83
2023/07/27 09:59:49;;;;;;;1.20;1.20;;;;;;;;;;5051007;28;20433;-84
2023/07/27 10:02:16;;;;;;;1.33;1.33;;;;;;;;;;5045191;28;20504;-81
2023/07/27 10:04:42;;;;;;;1.63;1.63;;;;;;;;;;5053221;28;20473;-82
2023/07/27 10:07:09;;;;;;;1.77;1.77;;;;;;;;;;5049572;28;20524;-78
2023/07/27 10:09:36;;;;;;;3.10;3.00;;;;;;;;;;5023063;28;20535;-79
2023/07/27 10:12:04;;;;;;;1.53;1.53;;;;;;;;;;5036789;28;20971;-80
2023/07/27 10:14:31;;;;;;;2.00;2.00;;;;;;;;;;5043092;28;20465;-83
2023/07/27 10:17:10;;;;;;;6.13;6.03;;;;;;;;;;5048383;28;20445;-84
2023/07/27 10:19:44;;;;;;;2.10;1.80;;;;;;;;;;5052169;28;20405;-85
2023/07/27 10:22:14;;;;;;;2.30;2.30;;;;;;;;;;5052159;28;20520;-85
2023/07/27 10:24:47;;;;;;;2.30;2.30;;;;;;;;;;5038451;28;20434;-84
2023/07/27 10:27:14;;;;;;;2.20;2.20;;;;;;;;;;5056119;28;20441;-86
2023/07/27 10:29:42;;;;;;;1.97;1.97;;;;;;;;;;5051904;28;20433;-86
2023/07/27 10:32:12;;;;;;;1.90;1.90;;;;;;;;;;5051406;28;20434;-86
2023/07/27 10:34:39;;;;;;;1.57;1.57;;;;;;;;;;5053304;28;20464;-86
2023/07/27 10:37:06;;;;;;;2.40;2.40;;;;;;;;;;5053894;28;20449;-87
2023/07/27 10:39:33;;;;;;;2.13;2.13;;;;;;;;;;5062596;28;20462;-85
2023/07/27 10:42:09;;;;;;;2.60;2.50;;;;;;;;;;5058967;28;20883;-85
2023/07/27 10:44:42;;;;;;;3.60;3.50;;;;;;;;;;5053311;28;20452;-82
2023/07/27 10:47:20;;;;;;;3.40;3.20;;;;;;;;;;5052694;28;20446;-84
2023/07/27 10:49:48;;;;;;;3.73;3.70;;;;;;;;;;5060630;28;20414;-87
2023/07/27 10:52:18;;;;;;;3.70;3.60;;;;;;;;;;5064100;28;20454;-87
2023/07/27 10:54:48;;;;;;;3.43;3.43;;;;;;;;;;5072110;28;20559;-86
2023/07/27 10:57:14;;;;;;;3.93;3.83;;;;;;;;;;5065285;28;20469;-86
2023/07/27 10:59:41;;;;;;;4.10;4.10;;;;;;;;;;5054209;28;20445;-87
2023/07/27 11:02:14;;;;;;;4.33;4.23;;;;;;;;;;5064896;28;20449;-85
2023/07/27 11:04:44;;;;;;;4.77;4.67;;;;;;;;;;5068595;28;20448;-88
2023/07/27 11:07:11;;;;;;;3.80;3.70;;;;;;;;;;5062563;28;20439;-84
2023/07/27 11:09:37;;;;;;;4.77;4.50;;;;;;;;;;5044704;28;20448;-86
2023/07/27 11:12:04;;;;;;;5.10;4.90;;;;;;;;;;5051830;28;20451;-83
2023/07/27 11:14:30;;;;;;;4.87;4.70;;;;;;;;;;5057769;28;20468;-84
2023/07/27 11:16:56;;;;;;;4.73;4.63;;;;;;;;;;5042559;28;20510;-84
2023/07/27 11:19:26;;;;;;;3.90;3.80;;;;;;;;;;5053182;28;20441;-83
2023/07/27 11:21:54;;;;;;;4.17;4.07;;;;;;;;;;5056204;28;20528;-84
2023/07/27 11:24:20;;;;;;;5.30;4.77;;;;;;;;;;5057753;28;21003;-82
2023/07/27 11:26:46;;;;;;;4.83;4.57;;;;;;;;;;5054990;28;20442;-82
2023/07/27 11:29:12;;;;;;;3.73;3.67;;;;;;;;;;5051350;28;20398;-84
2023/07/27 11:31:38;;;;;;;3.93;3.83;;;;;;;;;;5059767;28;20440;-82
2023/07/27 11:34:04;;;;;;;3.73;3.73;;;;;;;;;;5054925;28;20457;-83
2023/07/27 11:36:31;;;;;;;3.70;3.70;;;;;;;;;;5044594;28;20472;-82
2023/07/27 11:38:58;;;;;;;3.60;3.60;;;;;;;;;;5039944;28;20915;-82
2023/07/27 11:41:26;;;;;;;3.40;3.40;;;;;;;;;;5039338;28;20575;-84
2023/07/27 11:43:54;;;;;;;3.60;3.50;;;;;;;;;;5055166;28;20968;-84
2023/07/27 11:46:20;;;;;;;2.73;2.63;;;;;;;;;;5044364;28;20482;-82
2023/07/27 11:48:47;;;;;;;2.87;2.87;;;;;;;;;;5048907;28;20437;-83
2023/07/27 11:51:14;;;;;;;2.80;2.80;;;;;;;;;;5036767;28;20421;-83
2023/07/27 11:53:40;;;;;;;3.37;3.27;;;;;;;;;;5042603;28;20472;-83
2023/07/27 11:56:09;;;;;;;2.53;2.53;;;;;;;;;;5039520;28;20532;-82
2023/07/27 11:58:36;;;;;;;2.63;2.60;;;;;;;;;;5024450;28;20465;-83
2023/07/27 12:01:03;;;;;;;2.57;2.57;;;;;;;;;;5035803;28;20799;-81
2023/07/27 12:03:31;;;;;;;3.00;2.90;;;;;;;;;;5046777;28;20525;-83
2023/07/27 12:05:57;;;;;;;2.10;2.10;;;;;;;;;;5048909;28;20499;-81
2023/07/27 12:08:24;;;;;;;2.60;2.60;;;;;;;;;;5038156;28;20414;-82
2023/07/27 12:10:53;;;;;;;2.07;2.07;;;;;;;;;;5046881;28;20183;-82
2023/07/27 12:13:21;;;;;;;3.37;1.90;;;;;;;;;;5040639;28;20486;-83
2023/07/27 12:15:56;;;;;;;1.77;1.77;;;;;;;;;;5047901;28;20454;-83
2023/07/27 12:18:24;;;;;;;2.00;2.00;;;;;;;;;;5062127;28;21014;-85
2023/07/27 12:20:50;;;;;;;1.50;1.50;;;;;;;;;;5062126;28;20439;-85
2023/07/27 12:23:16;;;;;;;1.23;1.23;;;;;;;;;;5060188;28;20444;-86
2023/07/27 12:25:42;;;;;;;1.40;1.40;;;;;;;;;;5044949;28;20982;-85
2023/07/27 12:28:08;;;;;;;1.50;1.50;;;;;;;;;;5059276;28;20459;-83
2023/07/27 12:30:34;;;;;;;1.23;1.20;;;;;;;;;;5056029;28;20434;-81
2023/07/27 12:33:00;;;;;;;1.10;1.10;;;;;;;;;;5060233;28;20492;-85
2023/07/27 12:35:28;;;;;;;1.70;1.60;;;;;;;;;;5035807;28;20625;-85
2023/07/27 12:37:55;;;;;;;1.20;1.20;;;;;;;;;;5047835;28;20449;-82
2023/07/27 12:40:21;;;;;;;1.57;1.57;;;;;;;;;;5063270;28;20521;-86
2023/07/27 12:42:47;;;;;;;1.83;1.83;;;;;;;;;;5030503;28;20430;-84
2023/07/27 12:45:13;;;;;;;2.07;2.07;;;;;;;;;;5041070;28;20507;-85
2023/07/27 12:47:42;;;;;;;2.40;2.40;;;;;;;;;;5059328;28;20445;-86
2023/07/27 12:50:08;;;;;;;3.93;3.73;;;;;;;;;;5054105;28;20513;-80
2023/07/27 12:52:34;;;;;;;3.40;3.20;;;;;;;;;;5043124;28;20488;-81
2023/07/27 12:55:00;;;;;;;7.47;6.93;;;;;;;;;;5026079;28;20957;-80
2023/07/27 12:57:26;;;;;;;2.63;2.43;;;;;;;;;;5045175;28;20445;-82
2023/07/27 12:59:52;;;;;;;2.90;2.90;;;;;;;;;;5058473;28;20434;-83
2023/07/27 13:02:18;;;;;;;2.63;2.53;;;;;;;;;;5049704;28;20430;-87
2023/07/27 13:04:45;;;;;;;2.53;2.43;;;;;;;;;;5057034;28;20423;-86
2023/07/27 13:07:13;;;;;;;4.70;3.47;;;;;;;;;;5060074;28;20736;-83
2023/07/27 13:09:40;;;;;;;2.70;2.70;;;;;;;;;;5072418;28;20501;-84
2023/07/27 13:12:06;;;;;;;2.70;2.70;;;;;;;;;;5058573;28;20462;-82
2023/07/27 13:14:32;;;;;;;2.57;2.47;;;;;;;;;;5066129;28;20465;-83
2023/07/27 13:16:58;;;;;;;1.60;1.60;;;;;;;;;;5071631;28;20436;-83
2023/07/27 13:19:24;;;;;;;1.50;1.40;;;;;;;;;;5065877;28;20436;-86
2023/07/27 13:21:50;;;;;;;1.80;1.80;;;;;;;;;;5057384;28;20913;-79
2023/07/27 13:24:16;;;;;;;1.40;1.40;;;;;;;;;;5038454;28;20778;-81
2023/07/27 13:26:42;;;;;;;1.20;1.20;;;;;;;;;;5041073;28;20441;-80
2023/07/27 13:29:10;;;;;;;1.10;1.10;;;;;;;;;;5043001;28;20402;-78
2023/07/27 13:31:36;;;;;;;1.73;1.73;;;;;;;;;;5038287;28;20724;-79
2023/07/27 13:34:02;;;;;;;2.40;2.30;;;;;;;;;;5034708;28;21232;-80
2023/07/27 13:36:28;;;;;;;1.30;1.30;;;;;;;;;;5045722;28;20591;-78
2023/07/27 13:38:54;;;;;;;1.37;1.37;;;;;;;;;;5031019;28;20548;-81
2023/07/27 13:41:20;;;;;;;1.73;1.73;;;;;;;;;;5041334;28;21189;-79
2023/07/27 13:43:46;;;;;;;2.20;2.17;;;;;;;;;;5042889;28;20880;-83
2023/07/27 13:46:12;;;;;;;2.23;2.13;;;;;;;;;;5026648;28;20528;-79
2023/07/27 13:48:38;;;;;;;1.47;1.47;;;;;;;;;;5024067;28;20464;-78
2023/07/27 13:51:04;;;;;;;1.70;1.60;;;;;;;;;;5042070;28;20430;-80
2023/07/27 13:53:30;;;;;;;1.70;1.70;;;;;;;;;;5040177;28;20468;-79
2023/07/27 13:55:56;;;;;;;1.83;1.73;;;;;;;;;;5045568;28;20422;-83
2023/07/27 13:58:22;;;;;;;1.97;1.97;;;;;;;;;;5044165;28;20422;-83
2023/07/27 14:00:49;;;;;;;1.60;1.60;;;;;;;;;;5047366;28;20759;-84
2023/07/27 14:03:15;;;;;;;2.40;2.40;;;;;;;;;;5048226;28;20449;-82
2023/07/27 14:05:41;;;;;;;1.70;1.70;;;;;;;;;;5049928;28;20406;-82
2023/07/27 14:08:07;;;;;;;3.13;1.67;;;;;;;;;;5028170;28;20520;-84
2023/07/27 14:10:33;;;;;;;1.90;1.80;;;;;;;;;;5026449;28;20504;-84
2023/07/27 14:12:59;;;;;;;1.70;1.70;;;;;;;;;;5047222;28;20491;-84
2023/07/27 14:15:25;;;;;;;1.53;1.43;;;;;;;;;;5028074;28;20528;-86
2023/07/27 14:17:51;;;;;;;1.33;1.33;;;;;;;;;;5050199;28;20440;-84
2023/07/27 14:20:17;;;;;;;1.63;1.63;;;;;;;;;;5041717;28;20437;-77
2023/07/27 14:22:43;;;;;;;1.53;1.53;;;;;;;;;;5045093;28;20460;-80
2023/07/27 14:25:09;;;;;;;1.57;1.47;;;;;;;;;;5051218;28;20450;-83
2023/07/27 14:27:35;;;;;;;1.47;1.40;;;;;;;;;;5060252;28;20409;-85
2023/07/27 14:30:01;;;;;;;2.23;2.07;;;;;;;;;;5062252;28;21037;-85
2023/07/27 14:32:28;;;;;;;1.43;1.43;;;;;;;;;;5060556;28;20433;-83
2023/07/27 14:34:54;;;;;;;1.80;1.70;;;;;;;;;;5058542;28;20488;-84
2023/07/27 14:37:21;;;;;;;1.53;1.43;;;;;;;;;;5058744;28;20773;-85
2023/07/27 14:39:47;;;;;;;2.60;2.50;;;;;;;;;;5062706;28;20449;-86
2023/07/27 14:42:13;;;;;;;1.60;1.60;;;;;;;;;;5064390;28;20422;-87
2023/07/27 14:44:39;;;;;;;1.60;1.60;;;;;;;;;;5063590;28;20980;-84